createdAt,value
2022-10-30T00:00:52.350Z,96887.41
2022-10-30T00:03:19.810Z,96893.22
2022-10-30T00:05:49.384Z,96892.19
2022-10-30T00:08:18.883Z,96892.66
2022-10-30T00:10:46.704Z,96890.91
2022-10-30T00:13:14.314Z,96894.41
2022-10-30T00:15:47.439Z,96889.72
2022-10-30T00:18:14.782Z,96884.22
2022-10-30T00:20:41.754Z,96891.06
2022-10-30T00:23:08.851Z,96886.59
2022-10-30T00:25:36.683Z,96891.63
2022-10-30T00:28:05.711Z,96888.78
2022-10-30T00:30:34.512Z,96887.47
2022-10-30T00:33:01.745Z,96887.47
2022-10-30T00:35:29.131Z,96874.34
2022-10-30T00:37:56.469Z,96873.88
2022-10-30T00:40:24.257Z,96871.72
2022-10-30T00:42:52.205Z,96877.75
2022-10-30T00:45:19.436Z,96878.94
2022-10-30T00:47:55.202Z,96872.13
2022-10-30T00:50:28.536Z,96871.63
2022-10-30T00:53:07.781Z,96874.50
2022-10-30T00:55:56.792Z,96872.19
2022-10-30T00:58:31.753Z,96860.09
2022-10-30T01:01:03.456Z,96864.09
2022-10-30T01:03:31.883Z,96854.34
2022-10-30T01:06:00.751Z,96869.06
2022-10-30T01:08:27.994Z,96863.06
2022-10-30T01:10:57.293Z,96855.69
2022-10-30T01:13:25.021Z,96862.00
2022-10-30T01:16:26.833Z,96856.72
2022-10-30T01:19:14.371Z,96850.13
2022-10-30T01:21:46.713Z,96843.84
2022-10-30T01:24:28.681Z,96846.13
2022-10-30T01:27:23.233Z,96838.97
2022-10-30T01:30:10.373Z,96836.00
2022-10-30T01:33:05.460Z,96838.56
2022-10-30T01:35:44.840Z,96838.78
2022-10-30T01:38:21.242Z,96846.09
2022-10-30T01:40:52.670Z,96840.53
2022-10-30T01:43:20.431Z,96841.00
2022-10-30T01:46:17.139Z,96837.56
2022-10-30T01:48:53.451Z,96836.31
2022-10-30T01:51:33.011Z,96836.31
2022-10-30T01:54:21.713Z,96837.34
2022-10-30T01:57:18.423Z,96830.88
2022-10-30T01:59:54.531Z,96827.78
2022-10-30T02:02:22.810Z,96831.78
2022-10-30T02:04:50.963Z,96830.19
2022-10-30T02:07:18.063Z,96827.78
2022-10-30T02:09:51.562Z,96821.72
2022-10-30T02:12:19.672Z,96816.47
2022-10-30T02:14:53.391Z,96822.19
2022-10-30T02:17:21.000Z,96822.75
2022-10-30T02:19:50.046Z,96821.97
2022-10-30T02:22:18.404Z,96818.06
2022-10-30T02:24:45.993Z,96816.47
2022-10-30T02:27:13.481Z,96812.59
2022-10-30T02:29:41.081Z,96810.97
2022-10-30T02:32:08.254Z,96807.56
2022-10-30T02:34:35.552Z,96800.13
2022-10-30T02:37:02.562Z,96808.81
2022-10-30T02:39:29.572Z,96801.72
2022-10-30T02:41:57.824Z,96803.03
2022-10-30T02:44:24.887Z,96802.75
2022-10-30T02:46:51.832Z,96801.66
2022-10-30T02:49:18.801Z,96800.06
2022-10-30T02:51:45.741Z,96803.47
2022-10-30T02:54:13.391Z,96799.97
2022-10-30T02:56:41.224Z,96801.47
2022-10-30T02:59:08.372Z,96799.63
2022-10-30T03:01:35.424Z,96799.88
2022-10-30T03:04:02.512Z,96801.38
2022-10-30T03:06:29.581Z,96806.63
2022-10-30T03:08:58.202Z,96804.59
2022-10-30T03:11:25.151Z,96801.16
2022-10-30T03:13:54.691Z,96800.34
2022-10-30T03:16:25.120Z,96800.81
2022-10-30T03:18:53.142Z,96804.00
2022-10-30T03:21:22.327Z,96805.38
2022-10-30T03:23:52.671Z,96800.59
2022-10-30T03:26:20.473Z,96806.19
2022-10-30T03:28:51.392Z,96799.47
2022-10-30T03:31:19.717Z,96804.16
2022-10-30T03:33:49.891Z,96804.31
2022-10-30T03:36:18.202Z,96803.72
2022-10-30T03:38:45.250Z,96810.81
2022-10-30T03:41:16.131Z,96800.00
2022-10-30T03:43:44.512Z,96800.44
2022-10-30T03:46:11.721Z,96803.06
2022-10-30T03:48:39.234Z,96803.06
2022-10-30T03:51:06.621Z,96794.63
2022-10-30T03:53:34.442Z,96803.31
2022-10-30T03:56:04.207Z,96797.25
2022-10-30T03:58:40.453Z,96789.94
2022-10-30T04:01:10.895Z,96790.75
2022-10-30T04:03:40.892Z,96790.53
2022-10-30T04:06:09.702Z,96789.50
2022-10-30T04:08:36.941Z,96791.06
2022-10-30T04:11:04.861Z,96789.00
2022-10-30T04:13:32.302Z,96782.16
2022-10-30T04:15:59.273Z,96790.16
2022-10-30T04:18:26.762Z,96788.63
2022-10-30T04:20:59.608Z,96792.94
2022-10-30T04:23:27.152Z,96788.25
2022-10-30T04:25:55.602Z,96786.50
2022-10-30T04:28:23.281Z,96787.31
2022-10-30T04:30:50.384Z,96783.19
2022-10-30T04:33:18.154Z,96788.97
2022-10-30T04:35:45.106Z,96789.09
2022-10-30T04:38:16.593Z,96781.09
2022-10-30T04:40:44.742Z,96786.28
2022-10-30T04:43:13.852Z,96790.72
2022-10-30T04:45:42.123Z,96789.63
2022-10-30T04:48:15.084Z,96786.19
2022-10-30T04:50:43.800Z,96788.03
2022-10-30T04:53:16.862Z,96783.56
2022-10-30T04:55:47.344Z,96784.59
2022-10-30T04:58:15.102Z,96782.44
2022-10-30T05:00:46.725Z,96778.53
2022-10-30T05:03:19.744Z,96776.22
2022-10-30T05:05:49.082Z,96770.28
2022-10-30T05:08:16.125Z,96777.44
2022-10-30T05:10:45.624Z,96771.22
2022-10-30T05:13:13.631Z,96765.00
2022-10-30T05:15:43.534Z,96767.75
2022-10-30T05:18:10.884Z,96775.94
2022-10-30T05:20:38.134Z,96775.25
2022-10-30T05:23:05.905Z,96773.00
2022-10-30T05:25:33.312Z,96772.84
2022-10-30T05:28:03.915Z,96772.50
2022-10-30T05:30:36.861Z,96764.56
2022-10-30T05:33:13.424Z,96774.50
2022-10-30T05:35:40.742Z,96775.13
2022-10-30T05:38:08.222Z,96771.88
2022-10-30T05:40:35.779Z,96781.66
2022-10-30T05:43:03.701Z,96783.03
2022-10-30T05:45:31.542Z,96782.31
2022-10-30T05:48:03.062Z,96787.44
2022-10-30T05:50:34.982Z,96789.78
2022-10-30T05:53:23.582Z,96787.66
2022-10-30T05:55:52.503Z,96791.09
2022-10-30T05:58:21.976Z,96790.53
2022-10-30T06:00:50.055Z,96798.66
2022-10-30T06:03:27.192Z,96787.03
2022-10-30T06:05:56.095Z,96796.41
2022-10-30T06:08:23.632Z,96796.66
2022-10-30T06:10:55.977Z,96799.03
2022-10-30T06:13:27.620Z,96797.22
2022-10-30T06:16:01.096Z,96796.97
2022-10-30T06:18:43.415Z,96798.81
2022-10-30T06:21:12.478Z,96797.16
2022-10-30T06:24:02.414Z,96797.88
2022-10-30T06:26:43.777Z,96796.75
2022-10-30T06:29:14.137Z,96800.34
2022-10-30T06:31:41.705Z,96804.69
2022-10-30T06:34:08.975Z,96808.50
2022-10-30T06:36:39.451Z,96804.94
2022-10-30T06:39:06.701Z,96800.84
2022-10-30T06:41:48.882Z,96803.88
2022-10-30T06:44:45.415Z,96815.19
2022-10-30T06:47:12.777Z,96816.22
2022-10-30T06:49:40.073Z,96814.97
2022-10-30T06:52:07.376Z,96815.81
2022-10-30T06:54:35.231Z,96814.81
2022-10-30T06:57:25.344Z,96821.44
2022-10-30T07:00:07.667Z,96818.06
2022-10-30T07:03:02.702Z,96830.25
2022-10-30T07:05:30.709Z,96833.75
2022-10-30T07:07:58.179Z,96824.31
2022-10-30T07:10:25.377Z,96836.28
2022-10-30T07:13:23.859Z,96839.28
2022-10-30T07:16:23.495Z,96840.97
2022-10-30T07:18:51.618Z,96837.88
2022-10-30T07:21:18.859Z,96844.88
2022-10-30T07:23:46.179Z,96839.16
2022-10-30T07:26:28.068Z,96846.34
2022-10-30T07:28:58.574Z,96848.03
2022-10-30T07:32:02.161Z,96851.53
2022-10-30T07:34:45.302Z,96848.97
2022-10-30T07:37:30.391Z,96851.44
2022-10-30T07:40:12.307Z,96854.44
2022-10-30T07:43:01.564Z,96853.97
2022-10-30T07:45:41.578Z,96855.34
2022-10-30T07:48:34.819Z,96845.66
2022-10-30T07:51:17.535Z,96849.38
2022-10-30T07:53:44.784Z,96851.28
2022-10-30T07:56:13.055Z,96854.50
2022-10-30T07:58:52.308Z,96856.66
2022-10-30T08:01:31.565Z,96855.13
2022-10-30T08:04:11.584Z,96856.22
2022-10-30T08:06:38.977Z,96864.41
2022-10-30T08:09:06.216Z,96856.03
2022-10-30T08:11:34.377Z,96858.41
2022-10-30T08:14:02.024Z,96857.41
2022-10-30T08:16:29.216Z,96851.88
2022-10-30T08:18:57.779Z,96851.91
2022-10-30T08:21:26.064Z,96852.41
2022-10-30T08:23:59.498Z,96854.53
2022-10-30T08:26:29.140Z,96858.50
2022-10-30T08:28:56.706Z,96852.97
2022-10-30T08:31:25.817Z,96858.28
2022-10-30T08:34:02.145Z,96862.78
2022-10-30T08:36:51.947Z,96862.28
2022-10-30T08:39:20.377Z,96866.50
2022-10-30T08:42:07.105Z,96859.63
2022-10-30T08:44:40.338Z,96864.91
2022-10-30T08:47:26.256Z,96873.38
2022-10-30T08:49:53.617Z,96859.06
2022-10-30T08:52:24.596Z,96867.50
2022-10-30T08:54:56.857Z,96858.44
2022-10-30T08:57:26.899Z,96860.25
2022-10-30T08:59:56.862Z,96857.34
2022-10-30T09:02:42.737Z,96864.19
2022-10-30T09:05:28.367Z,96856.13
2022-10-30T09:08:16.056Z,96857.63
2022-10-30T09:11:03.439Z,96858.00
2022-10-30T09:13:31.016Z,96857.41
2022-10-30T09:16:02.938Z,96856.69
2022-10-30T09:18:33.177Z,96854.66
2022-10-30T09:21:04.551Z,96862.78
2022-10-30T09:23:37.627Z,96856.25
2022-10-30T09:26:27.860Z,96860.28
2022-10-30T09:29:18.102Z,96861.19
2022-10-30T09:31:57.617Z,96863.84
2022-10-30T09:37:19.616Z,96867.66
2022-10-30T09:39:51.376Z,96873.28
2022-10-30T09:42:48.645Z,96877.88
2022-10-30T09:45:34.889Z,96863.28
2022-10-30T09:48:39.428Z,96870.75
2022-10-30T09:51:41.183Z,96869.03
2022-10-30T09:54:39.775Z,96867.09
2022-10-30T09:57:42.287Z,96870.66
2022-10-30T10:00:13.432Z,96867.13
2022-10-30T10:02:53.507Z,96867.06
2022-10-30T10:05:28.735Z,96863.34
2022-10-30T10:08:28.956Z,96857.72
2022-10-30T10:11:24.617Z,96856.31
2022-10-30T10:14:02.622Z,96860.56
2022-10-30T10:16:35.443Z,96852.22
2022-10-30T10:19:34.783Z,96848.06
2022-10-30T10:22:04.122Z,96849.31
2022-10-30T10:24:42.405Z,96850.28
2022-10-30T10:27:31.155Z,96846.09
2022-10-30T10:30:05.375Z,96842.28
2022-10-30T10:32:41.555Z,96842.63
2022-10-30T10:35:11.273Z,96839.50
2022-10-30T10:37:52.700Z,96838.53
2022-10-30T10:40:46.364Z,96835.47
2022-10-30T10:43:25.531Z,96828.31
2022-10-30T10:46:30.135Z,96831.66
2022-10-30T10:48:57.244Z,96819.75
2022-10-30T10:51:37.298Z,96819.41
2022-10-30T10:54:12.387Z,96815.97
2022-10-30T10:56:43.899Z,96823.38
2022-10-30T10:59:38.804Z,96823.22
2022-10-30T11:02:05.871Z,96817.56
2022-10-30T11:04:36.525Z,96826.38
2022-10-30T11:07:14.658Z,96815.31
2022-10-30T11:09:42.386Z,96817.50
2022-10-30T11:12:09.616Z,96811.19
2022-10-30T11:14:40.027Z,96812.22
2022-10-30T11:17:15.896Z,96816.41
2022-10-30T11:19:45.420Z,96809.50
2022-10-30T11:22:25.097Z,96811.47
2022-10-30T11:24:52.156Z,96805.72
2022-10-30T11:27:28.824Z,96811.88
2022-10-30T11:30:04.975Z,96805.56
2022-10-30T11:32:34.556Z,96802.81
2022-10-30T11:35:10.414Z,96796.81
2022-10-30T11:37:39.987Z,96794.16
2022-10-30T11:40:16.855Z,96785.69
2022-10-30T11:42:53.636Z,96779.09
2022-10-30T11:45:28.007Z,96783.47
2022-10-30T11:48:01.210Z,96792.25
2022-10-30T11:50:31.916Z,96792.56
2022-10-30T11:53:11.776Z,96784.59
2022-10-30T11:55:45.226Z,96776.97
2022-10-30T11:58:30.216Z,96782.13
2022-10-30T12:13:20.749Z,96771.94
2022-10-30T12:15:50.875Z,96767.84
2022-10-30T12:18:26.163Z,96765.41
2022-10-30T12:20:55.902Z,96768.19
2022-10-30T12:23:26.065Z,96771.56
2022-10-30T12:26:00.320Z,96767.06
2022-10-30T12:28:33.106Z,96768.47
2022-10-30T12:31:08.836Z,96767.97
2022-10-30T12:33:44.598Z,96759.41
2022-10-30T12:36:16.976Z,96754.69
2022-10-30T12:38:52.623Z,96752.78
2022-10-30T12:41:27.556Z,96749.88
2022-10-30T12:44:08.904Z,96750.56
2022-10-30T12:46:42.685Z,96747.16
2022-10-30T12:49:22.095Z,96752.91
2022-10-30T12:51:54.676Z,96749.31
2022-10-30T12:55:03.347Z,96743.69
2022-10-30T12:57:41.758Z,96746.69
2022-10-30T13:00:16.897Z,96743.75
2022-10-30T13:03:22.629Z,96743.78
2022-10-30T13:06:00.445Z,96739.66
2022-10-30T13:08:36.816Z,96733.84
2022-10-30T13:11:09.617Z,96732.50
2022-10-30T13:13:41.286Z,96737.00
2022-10-30T13:16:15.479Z,96728.97
2022-10-30T13:18:42.517Z,96731.41
2022-10-30T13:21:38.827Z,96737.34
2022-10-30T13:24:12.417Z,96732.22
2022-10-30T13:26:48.214Z,96735.97
2022-10-30T13:29:36.706Z,96736.47
2022-10-30T13:32:41.173Z,96736.19
2022-10-30T13:35:18.100Z,96735.78
2022-10-30T13:37:58.320Z,96744.53
2022-10-30T13:40:46.830Z,96743.34
2022-10-30T13:43:29.444Z,96734.50
2022-10-30T13:46:16.320Z,96737.72
2022-10-30T13:49:05.576Z,96741.16
2022-10-30T13:51:39.371Z,96736.56
2022-10-30T13:54:10.266Z,96739.59
2022-10-30T13:56:37.384Z,96741.53
2022-10-30T13:59:25.755Z,96747.84
2022-10-30T14:02:05.677Z,96743.78
2022-10-30T14:04:39.097Z,96748.50
2022-10-30T14:07:35.554Z,96743.69
2022-10-30T14:10:11.175Z,96745.19
2022-10-30T14:13:14.919Z,96748.03
2022-10-30T14:15:45.427Z,96754.34
2022-10-30T14:18:12.417Z,96750.91
2022-10-30T14:20:40.105Z,96750.53
2022-10-30T14:23:23.555Z,96748.44
2022-10-30T14:26:05.863Z,96744.63
2022-10-30T14:28:35.946Z,96745.69
2022-10-30T14:31:16.873Z,96742.19
2022-10-30T14:33:55.186Z,96748.72
2022-10-30T14:36:46.507Z,96749.47
2022-10-30T14:39:13.499Z,96742.16
2022-10-30T14:41:42.916Z,96743.34
2022-10-30T14:44:26.326Z,96744.69
2022-10-30T14:46:57.676Z,96741.84
2022-10-30T14:49:33.538Z,96743.81
2022-10-30T14:52:13.676Z,96744.38
2022-10-30T14:54:59.439Z,96740.03
2022-10-30T14:57:48.523Z,96740.59
2022-10-30T15:00:25.006Z,96743.44
2022-10-30T15:03:24.036Z,96734.69
2022-10-30T15:05:56.772Z,96744.06
2022-10-30T15:08:31.237Z,96742.91
2022-10-30T15:11:27.255Z,96744.38
2022-10-30T15:14:01.156Z,96746.16
2022-10-30T15:16:29.767Z,96738.84
2022-10-30T15:19:13.942Z,96740.94
2022-10-30T15:21:47.148Z,96736.31
2022-10-30T15:24:18.095Z,96741.53
2022-10-30T15:26:50.716Z,96744.28
2022-10-30T15:29:30.275Z,96742.75
2022-10-30T15:32:05.877Z,96738.94
2022-10-30T15:34:33.658Z,96739.00
2022-10-30T15:37:11.786Z,96738.97
2022-10-30T15:39:39.028Z,96739.94
2022-10-30T15:42:06.075Z,96733.50
2022-10-30T15:44:43.736Z,96736.91
2022-10-30T15:47:16.735Z,96736.56
2022-10-30T15:49:55.427Z,96730.88
2022-10-30T15:52:26.755Z,96728.94
2022-10-30T15:55:00.122Z,96734.41
2022-10-30T16:00:29.780Z,96737.63
2022-10-30T16:03:16.245Z,96744.16
2022-10-30T16:05:43.525Z,96747.53
2022-10-30T16:08:28.236Z,96743.19
2022-10-30T16:10:56.237Z,96742.00
2022-10-30T16:13:29.174Z,96750.31
2022-10-30T16:15:56.824Z,96747.19
2022-10-30T16:18:27.913Z,96744.88
2022-10-30T16:21:02.461Z,96756.38
2022-10-30T16:23:30.920Z,96753.72
2022-10-30T16:25:59.495Z,96751.69
2022-10-30T16:28:34.845Z,96757.56
2022-10-30T16:31:07.555Z,96756.56
2022-10-30T16:33:37.088Z,96766.16
2022-10-30T16:36:05.796Z,96764.59
2022-10-30T16:38:37.130Z,96765.44
2022-10-30T16:41:13.679Z,96768.13
2022-10-30T16:43:44.146Z,96761.00
2022-10-30T16:46:14.295Z,96767.94
2022-10-30T16:49:01.586Z,96763.47
2022-10-30T16:51:29.396Z,96765.34
2022-10-30T16:53:56.674Z,96765.91
2022-10-30T16:56:26.981Z,96774.72
2022-10-30T16:58:59.735Z,96767.06
2022-10-30T17:01:28.062Z,96765.53
2022-10-30T17:03:56.153Z,96768.97
2022-10-30T17:06:35.640Z,96774.06
2022-10-30T17:09:08.724Z,96773.00
2022-10-30T17:11:44.238Z,96774.88
2022-10-30T17:14:22.036Z,96773.06
2022-10-30T17:16:56.960Z,96778.38
2022-10-30T17:19:46.575Z,96771.47
2022-10-30T17:22:19.515Z,96776.78
2022-10-30T17:24:48.013Z,96774.13
2022-10-30T17:27:46.510Z,96773.09
2022-10-30T17:30:33.015Z,96778.44
2022-10-30T17:33:00.886Z,96783.47
2022-10-30T17:35:28.056Z,96779.00
2022-10-30T17:37:58.391Z,96776.91
2022-10-30T17:40:28.705Z,96781.97
2022-10-30T17:42:55.604Z,96780.94
2022-10-30T17:45:22.916Z,96788.59
2022-10-30T17:47:49.836Z,96786.22
2022-10-30T17:50:16.906Z,96783.84
2022-10-30T17:52:43.857Z,96790.22
2022-10-30T17:55:28.668Z,96775.16
2022-10-30T17:57:55.677Z,96780.19
2022-10-30T18:00:22.757Z,96784.13
2022-10-30T18:02:50.025Z,96783.63
2022-10-30T18:05:20.165Z,96775.97
2022-10-30T18:07:47.308Z,96777.53
2022-10-30T18:10:14.979Z,96772.50
2022-10-30T18:12:42.095Z,96773.03
2022-10-30T18:15:30.215Z,96767.75
2022-10-30T18:17:57.625Z,96772.28
2022-10-30T18:20:24.734Z,96776.22
2022-10-30T18:22:51.917Z,96775.41
2022-10-30T18:25:24.248Z,96768.03
2022-10-30T18:27:51.889Z,96764.84
2022-10-30T18:30:19.776Z,96771.19
2022-10-30T18:32:47.415Z,96768.03
2022-10-30T18:35:21.739Z,96770.16
2022-10-30T18:37:48.854Z,96767.75
2022-10-30T18:40:18.984Z,96770.66
2022-10-30T18:42:48.870Z,96768.56
2022-10-30T18:45:33.084Z,96776.47
2022-10-30T18:48:05.316Z,96772.25
2022-10-30T18:50:33.523Z,96765.38
2022-10-30T18:53:01.511Z,96761.16
2022-10-30T18:55:40.134Z,96759.81
2022-10-30T18:58:08.065Z,96759.56
2022-10-30T19:00:57.967Z,96765.09
2022-10-30T19:03:23.797Z,96763.25
2022-10-30T19:05:51.336Z,96761.66
2022-10-30T19:08:18.385Z,96767.47
2022-10-30T19:10:47.093Z,96762.47
2022-10-30T19:13:19.834Z,96767.72
2022-10-30T19:15:59.021Z,96762.44
2022-10-30T19:18:28.665Z,96764.56
2022-10-30T19:21:05.558Z,96757.94
2022-10-30T19:23:33.715Z,96756.03
2022-10-30T19:26:01.620Z,96765.31
2022-10-30T19:28:30.995Z,96756.03
2022-10-30T19:30:58.055Z,96758.94
2022-10-30T19:33:26.537Z,96756.56
2022-10-30T19:36:02.647Z,96761.56
2022-10-30T19:38:31.020Z,96760.78
2022-10-30T19:40:58.174Z,96758.94
2022-10-30T19:43:26.622Z,96752.03
2022-10-30T19:45:57.096Z,96759.69
2022-10-30T19:48:55.446Z,96754.91
2022-10-30T19:51:12.397Z,96750.13
2022-10-30T19:53:41.097Z,96754.06
2022-10-30T19:56:14.250Z,96749.06
2022-10-30T19:58:41.888Z,96752.19
2022-10-30T20:01:12.571Z,96748.22
2022-10-30T20:03:39.600Z,96750.03
2022-10-30T20:06:06.932Z,96753.47
2022-10-30T20:08:33.876Z,96750.81
2022-10-30T20:11:02.214Z,96760.06
2022-10-30T20:13:30.176Z,96750.28
2022-10-30T20:15:59.678Z,96754.22
2022-10-30T20:18:30.743Z,96750.53
2022-10-30T20:20:59.903Z,96757.34
2022-10-30T20:23:27.696Z,96752.34
2022-10-30T20:25:59.476Z,96751.00
2022-10-30T20:28:28.800Z,96757.81
2022-10-30T20:30:56.392Z,96753.34
2022-10-30T20:33:25.686Z,96759.16
2022-10-30T20:35:54.873Z,96755.72
2022-10-30T20:38:26.582Z,96756.50
2022-10-30T20:40:54.134Z,96758.34
2022-10-30T20:43:27.487Z,96750.66
2022-10-30T20:45:54.464Z,96757.53
2022-10-30T20:48:21.500Z,96756.41
2022-10-30T20:50:50.776Z,96763.53
2022-10-30T20:53:17.979Z,96759.59
2022-10-30T20:55:45.836Z,96761.38
2022-10-30T20:58:13.069Z,96756.06
2022-10-30T21:00:40.073Z,96757.91
2022-10-30T21:03:08.480Z,96759.50
2022-10-30T21:05:45.405Z,96765.00
2022-10-30T21:08:14.297Z,96765.25
2022-10-30T21:10:42.633Z,96764.72
2022-10-30T21:13:10.997Z,96758.84
2022-10-30T21:15:40.345Z,96757.00
2022-10-30T21:18:07.726Z,96757.47
2022-10-30T21:20:34.972Z,96753.22
2022-10-30T21:23:01.955Z,96757.69
2022-10-30T21:25:29.839Z,96754.22
2022-10-30T21:27:57.371Z,96755.81
2022-10-30T21:30:24.657Z,96760.28
2022-10-30T21:32:51.723Z,96760.28
2022-10-30T21:35:19.095Z,96755.00
2022-10-30T21:37:46.077Z,96761.81
2022-10-30T21:40:13.528Z,96763.72
2022-10-30T21:42:40.438Z,96763.41
2022-10-30T21:45:08.148Z,96759.44
2022-10-30T21:47:35.169Z,96759.44
2022-10-30T21:50:05.989Z,96762.03
2022-10-30T21:52:35.056Z,96757.75
2022-10-30T21:55:02.116Z,96752.22
2022-10-30T21:57:29.610Z,96763.47
2022-10-30T21:59:58.868Z,96756.63
2022-10-30T22:02:31.479Z,96750.03
2022-10-30T22:04:58.437Z,96754.19
2022-10-30T22:07:25.395Z,96756.25
2022-10-30T22:09:53.740Z,96759.19
2022-10-30T22:12:20.775Z,96755.69
2022-10-30T22:14:47.761Z,96759.38
2022-10-30T22:17:14.758Z,96757.00
2022-10-30T22:19:41.747Z,96754.84
2022-10-30T22:22:09.336Z,96752.16
2022-10-30T22:24:36.387Z,96750.53
2022-10-30T22:27:03.537Z,96756.56
2022-10-30T22:29:30.496Z,96755.69
2022-10-30T22:31:57.516Z,96755.66
2022-10-30T22:34:24.484Z,96746.91
2022-10-30T22:36:51.476Z,96751.06
2022-10-30T22:39:18.457Z,96752.84
2022-10-30T22:41:45.405Z,96751.53
2022-10-30T22:44:14.936Z,96752.84
2022-10-30T22:46:42.279Z,96744.94
2022-10-30T22:49:09.414Z,96739.44
2022-10-30T22:51:38.777Z,96750.22
2022-10-30T22:54:08.517Z,96748.88
2022-10-30T22:56:36.717Z,96749.66
2022-10-30T22:59:04.909Z,96751.44
2022-10-30T23:01:32.974Z,96742.44
2022-10-30T23:04:02.289Z,96749.31
2022-10-30T23:06:31.400Z,96744.84
2022-10-30T23:08:59.975Z,96751.94
2022-10-30T23:11:29.797Z,96751.38
2022-10-30T23:13:57.317Z,96749.00
2022-10-30T23:16:26.035Z,96737.66
2022-10-30T23:18:56.186Z,96740.81
2022-10-30T23:21:25.405Z,96732.63
2022-10-30T23:23:52.787Z,96741.34
2022-10-30T23:26:22.479Z,96735.03
2022-10-30T23:28:51.734Z,96735.13
2022-10-30T23:31:25.905Z,96732.28
2022-10-30T23:33:55.326Z,96734.16
2022-10-30T23:36:22.476Z,96734.16
2022-10-30T23:38:57.817Z,96739.13
2022-10-30T23:41:27.383Z,96730.69
2022-10-30T23:43:56.055Z,96732.47
2022-10-30T23:46:23.666Z,96736.16
2022-10-30T23:48:50.574Z,96732.91
2022-10-30T23:51:17.695Z,96734.63
2022-10-30T23:53:44.645Z,96737.66
2022-10-30T23:56:11.654Z,96738.41
2022-10-30T23:58:48.134Z,96735.72
